createdAt,value
2018-07-15T00:02:55.541Z,20.04
2018-07-15T00:03:27.103Z,20.11
2018-07-15T00:04:29.790Z,20.10
2018-07-15T00:05:31.339Z,20.03
2018-07-15T00:06:31.847Z,20.03
2018-07-15T00:07:27.850Z,20.00
2018-07-15T00:08:30.487Z,19.95
2018-07-15T00:09:34.974Z,19.96
2018-07-15T00:10:28.491Z,19.92
2018-07-15T00:11:28.559Z,20.04
2018-07-15T00:12:28.766Z,19.96
2018-07-15T00:13:28.929Z,20.00
2018-07-15T00:14:29.136Z,19.99
2018-07-15T00:15:29.230Z,19.99
2018-07-15T00:16:29.527Z,19.89
2018-07-15T00:17:29.672Z,19.95
2018-07-15T00:18:29.789Z,20.00
2018-07-15T00:19:29.855Z,19.91
2018-07-15T00:20:30.073Z,19.94
2018-07-15T00:21:30.303Z,19.91
2018-07-15T00:22:30.319Z,19.91
2018-07-15T00:23:30.537Z,19.91
2018-07-15T00:24:30.723Z,19.91
2018-07-15T00:25:30.782Z,19.84
2018-07-15T00:26:30.869Z,19.89
2018-07-15T00:27:31.135Z,19.82
2018-07-15T00:28:31.379Z,19.86
2018-07-15T00:29:31.379Z,19.79
2018-07-15T00:30:31.646Z,19.67
2018-07-15T00:31:33.247Z,19.71
2018-07-15T00:32:33.508Z,19.73
2018-07-15T00:33:36.088Z,19.64
2018-07-15T00:34:36.497Z,19.74
2018-07-15T00:35:36.787Z,19.74
2018-07-15T00:36:33.815Z,19.73
2018-07-15T00:37:32.830Z,19.76
2018-07-15T00:38:32.799Z,19.67
2018-07-15T00:39:33.119Z,19.71
2018-07-15T00:40:33.310Z,19.73
2018-07-15T00:41:33.240Z,19.67
2018-07-15T00:42:33.702Z,19.62
2018-07-15T00:43:33.884Z,19.64
2018-07-15T00:44:33.824Z,19.66
2018-07-15T00:45:34.272Z,19.63
2018-07-15T00:46:34.508Z,19.54
2018-07-15T00:47:34.349Z,19.51
2018-07-15T00:48:34.986Z,19.58
2018-07-15T00:49:34.890Z,19.48
2018-07-15T00:50:34.787Z,19.49
2018-07-15T00:51:35.280Z,19.37
2018-07-15T00:52:35.388Z,19.36
2018-07-15T00:53:35.344Z,19.31
2018-07-15T00:54:35.713Z,19.39
2018-07-15T00:55:35.851Z,19.37
2018-07-15T00:56:35.836Z,19.30
2018-07-15T00:57:36.312Z,19.30
2018-07-15T00:58:36.283Z,19.26
2018-07-15T00:59:36.667Z,19.21
2018-07-15T01:00:36.899Z,19.14
2018-07-15T01:01:37.002Z,19.31
2018-07-15T01:02:37.098Z,19.30
2018-07-15T01:03:37.413Z,19.24
2018-07-15T01:04:37.638Z,19.30
2018-07-15T01:05:37.611Z,19.26
2018-07-15T01:06:37.867Z,19.26
2018-07-15T01:07:37.930Z,19.27
2018-07-15T01:08:37.872Z,19.22
2018-07-15T01:09:38.049Z,19.19
2018-07-15T01:10:38.229Z,19.22
2018-07-15T01:11:38.404Z,19.24
2018-07-15T01:12:38.577Z,19.27
2018-07-15T01:13:38.761Z,19.09
2018-07-15T01:14:38.933Z,19.02
2018-07-15T01:15:39.108Z,19.14
2018-07-15T01:16:39.282Z,19.16
2018-07-15T01:17:39.465Z,19.16
2018-07-15T01:18:39.643Z,19.08
2018-07-15T01:19:39.820Z,19.07
2018-07-15T01:20:39.996Z,19.07
2018-07-15T01:21:40.172Z,19.04
2018-07-15T01:22:40.354Z,19.00
2018-07-15T01:23:40.533Z,19.08
2018-07-15T01:24:40.704Z,19.02
2018-07-15T01:25:40.889Z,18.98
2018-07-15T01:26:41.063Z,19.02
2018-07-15T01:27:41.248Z,18.99
2018-07-15T01:28:41.415Z,18.98
2018-07-15T01:29:41.596Z,18.90
2018-07-15T01:30:41.769Z,18.95
2018-07-15T01:31:41.941Z,18.90
2018-07-15T01:32:42.117Z,18.89
2018-07-15T01:33:42.298Z,18.83
2018-07-15T01:34:42.483Z,18.93
2018-07-15T01:35:42.651Z,18.89
2018-07-15T01:36:42.824Z,18.78
2018-07-15T01:37:43.006Z,18.78
2018-07-15T01:38:43.190Z,18.74
2018-07-15T01:39:43.368Z,18.71
2018-07-15T01:40:43.547Z,18.77
2018-07-15T01:41:43.728Z,18.73
2018-07-15T01:42:43.901Z,18.70
2018-07-15T01:43:44.076Z,18.58
2018-07-15T01:44:44.256Z,18.62
2018-07-15T01:45:44.424Z,18.53
2018-07-15T01:46:44.604Z,18.55
2018-07-15T01:47:44.783Z,18.52
2018-07-15T01:48:44.950Z,18.55
2018-07-15T01:49:45.126Z,18.49
2018-07-15T01:50:45.303Z,18.52
2018-07-15T01:51:45.478Z,18.45
2018-07-15T01:52:45.655Z,18.43
2018-07-15T01:53:45.842Z,18.41
2018-07-15T01:54:46.019Z,18.49
2018-07-15T01:55:46.196Z,18.50
2018-07-15T01:56:46.374Z,18.43
2018-07-15T01:57:46.554Z,18.45
2018-07-15T01:58:46.734Z,18.44
2018-07-15T01:59:46.911Z,18.40
2018-07-15T02:00:47.082Z,18.45
2018-07-15T02:01:47.258Z,18.49
2018-07-15T02:02:47.430Z,18.53
2018-07-15T02:03:47.609Z,18.58
2018-07-15T02:04:47.776Z,18.53
2018-07-15T02:05:47.959Z,18.50
2018-07-15T02:06:48.133Z,18.49
2018-07-15T02:07:48.317Z,18.50
2018-07-15T02:08:48.488Z,18.43
2018-07-15T02:09:48.660Z,18.38
2018-07-15T02:10:48.833Z,18.45
2018-07-15T02:11:49.003Z,18.41
2018-07-15T02:12:49.182Z,18.31
2018-07-15T02:13:49.356Z,18.29
2018-07-15T02:14:49.531Z,18.28
2018-07-15T02:15:49.712Z,18.29
2018-07-15T02:16:49.880Z,18.25
2018-07-15T02:17:50.065Z,18.20
2018-07-15T02:18:50.245Z,18.22
2018-07-15T02:19:50.417Z,18.18
2018-07-15T02:20:50.592Z,18.13
2018-07-15T02:21:50.762Z,18.16
2018-07-15T02:22:50.953Z,18.15
2018-07-15T02:23:51.132Z,18.13
2018-07-15T02:24:51.309Z,18.15
2018-07-15T02:25:51.494Z,18.08
2018-07-15T02:26:51.661Z,18.11
2018-07-15T02:27:51.840Z,18.01
2018-07-15T02:28:52.040Z,18.11
2018-07-15T02:29:52.217Z,18.08
2018-07-15T02:30:52.390Z,18.01
2018-07-15T02:31:52.566Z,18.04
2018-07-15T02:32:52.746Z,17.97
2018-07-15T02:33:52.922Z,17.86
2018-07-15T02:34:53.105Z,17.92
2018-07-15T02:35:53.268Z,17.89
2018-07-15T02:36:53.607Z,17.85
2018-07-15T02:37:53.626Z,17.89
2018-07-15T02:38:53.797Z,17.90
2018-07-15T02:39:53.974Z,17.95
2018-07-15T02:40:54.151Z,17.83
2018-07-15T02:41:54.335Z,17.83
2018-07-15T02:42:54.502Z,17.85
2018-07-15T02:43:54.682Z,17.83
2018-07-15T02:44:54.853Z,17.83
2018-07-15T02:45:55.032Z,17.89
2018-07-15T02:46:55.209Z,17.85
2018-07-15T02:47:55.392Z,17.87
2018-07-15T02:48:55.577Z,17.87
2018-07-15T02:49:55.737Z,17.82
2018-07-15T02:50:55.908Z,17.87
2018-07-15T02:51:56.078Z,17.82
2018-07-15T02:52:56.252Z,17.90
2018-07-15T02:53:56.430Z,17.86
2018-07-15T02:54:56.616Z,17.83
2018-07-15T02:55:56.795Z,17.89
2018-07-15T02:56:56.966Z,17.86
2018-07-15T02:57:57.143Z,17.86
2018-07-15T02:58:57.316Z,17.76
2018-07-15T02:59:57.517Z,17.79
2018-07-15T03:00:57.671Z,17.80
2018-07-15T03:01:57.850Z,17.71
2018-07-15T03:02:58.032Z,17.67
2018-07-15T03:03:58.213Z,17.70
2018-07-15T03:04:58.380Z,17.71
2018-07-15T03:05:58.591Z,17.68
2018-07-15T03:06:58.776Z,17.63
2018-07-15T03:07:58.946Z,17.67
2018-07-15T03:08:59.116Z,17.65
2018-07-15T03:09:59.289Z,17.57
2018-07-15T03:10:59.463Z,17.63
2018-07-15T03:11:59.632Z,17.60
2018-07-15T03:12:59.810Z,17.51
2018-07-15T03:13:59.983Z,17.70
2018-07-15T03:15:00.157Z,17.56
2018-07-15T03:16:00.327Z,17.60
2018-07-15T03:17:00.502Z,17.52
2018-07-15T03:18:00.676Z,17.46
2018-07-15T03:19:00.854Z,17.49
2018-07-15T03:20:01.026Z,17.54
2018-07-15T03:21:01.203Z,17.54
2018-07-15T03:22:01.379Z,17.48
2018-07-15T03:23:01.554Z,17.45
2018-07-15T03:24:01.727Z,17.56
2018-07-15T03:25:01.905Z,17.41
2018-07-15T03:26:02.075Z,17.46
2018-07-15T03:27:02.255Z,17.31
2018-07-15T03:28:02.434Z,17.42
2018-07-15T03:29:02.605Z,17.38
2018-07-15T03:30:02.784Z,17.38
2018-07-15T03:31:02.957Z,17.39
2018-07-15T03:32:03.128Z,17.34
2018-07-15T03:33:03.302Z,17.27
2018-07-15T03:34:03.532Z,17.24
2018-07-15T03:35:03.658Z,17.20
2018-07-15T03:36:03.835Z,17.29
2018-07-15T03:37:04.014Z,17.20
2018-07-15T03:38:04.195Z,17.12
2018-07-15T03:39:04.375Z,17.26
2018-07-15T03:40:04.562Z,17.20
2018-07-15T03:41:04.728Z,17.23
2018-07-15T03:42:04.901Z,17.24
2018-07-15T03:43:05.074Z,17.22
2018-07-15T03:44:05.253Z,17.22
2018-07-15T03:45:05.422Z,17.30
2018-07-15T03:46:05.603Z,17.26
2018-07-15T03:47:05.790Z,17.33
2018-07-15T03:48:05.964Z,17.39
2018-07-15T03:49:06.137Z,17.39
2018-07-15T03:50:06.316Z,17.33
2018-07-15T03:51:06.496Z,17.36
2018-07-15T03:52:06.664Z,17.34
2018-07-15T03:53:06.841Z,17.41
2018-07-15T03:54:07.030Z,17.39
2018-07-15T03:55:07.206Z,17.39
2018-07-15T03:56:07.389Z,17.41
2018-07-15T03:57:07.562Z,17.46
2018-07-15T03:58:07.738Z,17.45
2018-07-15T03:59:07.912Z,17.34
2018-07-15T04:00:08.091Z,17.34
2018-07-15T04:01:08.264Z,17.39
2018-07-15T04:02:08.452Z,17.46
2018-07-15T04:03:08.625Z,17.41
2018-07-15T04:04:08.802Z,17.38
2018-07-15T04:05:08.977Z,17.49
2018-07-15T04:06:09.158Z,17.44
2018-07-15T04:07:09.335Z,17.46
2018-07-15T04:08:09.508Z,17.51
2018-07-15T04:09:09.687Z,17.49
2018-07-15T04:10:09.864Z,17.54
2018-07-15T04:11:10.057Z,17.48
2018-07-15T04:12:10.239Z,17.60
2018-07-15T04:13:10.426Z,17.63
2018-07-15T04:14:10.608Z,17.59
2018-07-15T04:15:10.783Z,17.57
2018-07-15T04:16:10.967Z,17.70
2018-07-15T04:17:11.140Z,17.65
2018-07-15T04:18:11.320Z,17.70
2018-07-15T04:19:11.523Z,17.67
2018-07-15T04:20:11.686Z,17.70
2018-07-15T04:21:11.864Z,17.74
2018-07-15T04:22:12.037Z,17.72
2018-07-15T04:23:12.232Z,17.74
2018-07-15T04:24:12.417Z,17.74
2018-07-15T04:25:12.591Z,17.83
2018-07-15T04:26:12.771Z,17.85
2018-07-15T04:27:12.953Z,17.79
2018-07-15T04:28:13.158Z,17.79
2018-07-15T04:29:13.299Z,17.86
2018-07-15T04:30:13.480Z,17.80
2018-07-15T04:31:13.655Z,17.89
2018-07-15T04:32:13.831Z,17.82
2018-07-15T04:33:14.006Z,17.92
2018-07-15T04:34:14.179Z,17.95
2018-07-15T04:35:14.362Z,17.98
2018-07-15T04:36:14.539Z,18.00
2018-07-15T04:37:14.717Z,18.07
2018-07-15T04:38:14.886Z,18.15
2018-07-15T04:39:15.067Z,18.26
2018-07-15T04:40:15.239Z,18.22
2018-07-15T04:41:15.417Z,18.23
2018-07-15T04:42:15.590Z,18.26
2018-07-15T04:43:15.772Z,18.35
2018-07-15T04:44:15.953Z,18.37
2018-07-15T04:45:16.132Z,18.43
2018-07-15T04:46:16.308Z,18.47
2018-07-15T04:47:16.484Z,18.43
2018-07-15T04:48:16.652Z,18.55
2018-07-15T04:49:16.832Z,18.58
2018-07-15T04:50:17.004Z,18.53
2018-07-15T04:51:17.179Z,18.63
2018-07-15T04:52:17.352Z,18.71
2018-07-15T04:53:17.547Z,18.80
2018-07-15T04:54:17.722Z,18.78
2018-07-15T04:55:17.907Z,18.88
2018-07-15T04:56:18.083Z,18.95
2018-07-15T04:57:18.258Z,18.89
2018-07-15T04:58:18.427Z,18.81
2018-07-15T04:59:18.610Z,18.95
2018-07-15T05:00:18.788Z,18.86
2018-07-15T05:01:19.141Z,18.93
2018-07-15T05:02:21.731Z,18.99
2018-07-15T05:03:20.271Z,19.00
2018-07-15T05:04:20.786Z,19.18
2018-07-15T05:05:20.749Z,19.19
2018-07-15T05:06:21.334Z,19.15
2018-07-15T05:07:21.506Z,19.27
2018-07-15T05:08:22.221Z,19.34
2018-07-15T05:09:20.750Z,19.36
2018-07-15T05:10:21.056Z,19.40
2018-07-15T05:11:20.757Z,19.48
2018-07-15T05:12:20.904Z,19.55
2018-07-15T05:13:21.081Z,19.51
2018-07-15T05:14:21.287Z,19.64
2018-07-15T05:15:21.463Z,19.66
2018-07-15T05:16:21.660Z,19.84
2018-07-15T05:17:21.847Z,19.81
2018-07-15T05:18:22.089Z,19.85
2018-07-15T05:19:22.209Z,20.03
2018-07-15T05:20:22.394Z,20.09
2018-07-15T05:21:22.582Z,20.09
2018-07-15T05:22:22.761Z,20.13
2018-07-15T05:23:22.954Z,20.14
2018-07-15T05:24:23.133Z,20.29
2018-07-15T05:25:23.312Z,20.37
2018-07-15T05:26:23.505Z,20.39
2018-07-15T05:27:23.699Z,20.50
2018-07-15T05:28:23.872Z,20.47
2018-07-15T05:29:24.065Z,20.43
2018-07-15T05:30:24.481Z,20.44
2018-07-15T05:31:24.993Z,20.56
2018-07-15T05:32:24.641Z,20.59
2018-07-15T05:33:24.839Z,20.72
2018-07-15T05:34:25.054Z,20.78
2018-07-15T05:35:25.237Z,20.70
2018-07-15T05:36:25.430Z,20.80
2018-07-15T05:37:25.649Z,20.87
2018-07-15T05:38:25.848Z,20.93
2018-07-15T05:39:26.035Z,20.90
2018-07-15T05:40:26.214Z,20.85
2018-07-15T05:41:26.397Z,20.88
2018-07-15T05:42:26.910Z,20.97
2018-07-15T05:43:26.730Z,21.03
2018-07-15T05:44:26.905Z,21.20
2018-07-15T05:45:27.085Z,21.18
2018-07-15T05:46:27.256Z,21.22
2018-07-15T05:47:27.776Z,21.29
2018-07-15T05:48:27.600Z,21.33
2018-07-15T05:49:27.961Z,21.48
2018-07-15T05:50:27.896Z,21.60
2018-07-15T05:51:28.074Z,21.54
2018-07-15T05:52:28.412Z,21.64
2018-07-15T05:53:28.448Z,21.61
2018-07-15T05:54:28.631Z,21.62
2018-07-15T05:55:28.804Z,21.70
2018-07-15T05:56:28.983Z,21.64
2018-07-15T05:57:29.165Z,21.70
2018-07-15T05:58:29.342Z,21.54
2018-07-15T05:59:29.537Z,21.50
2018-07-15T06:00:29.720Z,21.39
2018-07-15T06:01:29.898Z,21.62
2018-07-15T06:02:30.084Z,21.62
2018-07-15T06:03:30.266Z,21.75
2018-07-15T06:04:30.441Z,22.08
2018-07-15T06:05:30.628Z,22.07
2018-07-15T06:06:30.821Z,22.22
2018-07-15T06:07:31.000Z,22.13
2018-07-15T06:08:31.403Z,22.10
2018-07-15T06:09:31.351Z,22.11
2018-07-15T06:10:31.565Z,22.22
2018-07-15T06:11:31.717Z,22.23
2018-07-15T06:12:31.906Z,22.35
2018-07-15T06:13:32.083Z,22.45
2018-07-15T06:14:32.687Z,22.54
2018-07-15T06:15:32.503Z,22.65
2018-07-15T06:16:32.670Z,22.87
2018-07-15T06:17:32.851Z,22.96
2018-07-15T06:18:33.132Z,23.08
2018-07-15T06:19:33.166Z,23.08
2018-07-15T06:20:33.343Z,23.34
2018-07-15T06:21:33.528Z,23.32
2018-07-15T06:22:33.713Z,23.32
2018-07-15T06:23:33.888Z,23.47
2018-07-15T06:24:34.078Z,23.56
2018-07-15T06:25:35.588Z,23.87
2018-07-15T06:26:34.412Z,23.98
2018-07-15T06:27:34.599Z,24.08
2018-07-15T06:28:34.798Z,24.42
2018-07-15T06:29:35.035Z,24.61
2018-07-15T06:30:35.101Z,24.70
2018-07-15T06:31:35.292Z,25.06
2018-07-15T06:32:35.485Z,25.25
2018-07-15T06:33:35.666Z,25.40
2018-07-15T06:34:35.865Z,25.70
2018-07-15T06:35:36.092Z,26.05
2018-07-15T06:36:36.254Z,26.51
2018-07-15T06:37:36.446Z,27.03
2018-07-15T06:38:36.633Z,27.44
2018-07-15T06:39:36.829Z,27.80
2018-07-15T06:40:37.008Z,27.95
2018-07-15T06:41:37.192Z,28.25
2018-07-15T06:42:37.386Z,28.88
2018-07-15T06:43:37.581Z,29.39
2018-07-15T06:44:37.767Z,29.42
2018-07-15T06:45:37.959Z,29.79
2018-07-15T06:46:38.148Z,29.94
2018-07-15T06:47:38.337Z,30.39
2018-07-15T06:48:38.545Z,30.80
2018-07-15T06:49:38.714Z,31.07
2018-07-15T06:50:38.902Z,31.22
2018-07-15T06:51:39.088Z,31.47
2018-07-15T06:52:39.278Z,31.21
2018-07-15T06:53:39.474Z,31.42
2018-07-15T06:54:39.660Z,31.37
2018-07-15T06:55:39.848Z,31.39
2018-07-15T06:56:40.036Z,31.61
2018-07-15T06:57:40.257Z,31.74
2018-07-15T06:58:40.445Z,32.14
2018-07-15T06:59:40.646Z,32.53
2018-07-15T07:00:40.834Z,32.86
2018-07-15T07:01:41.020Z,33.17
2018-07-15T07:02:41.213Z,33.43
2018-07-15T07:03:41.412Z,33.83
2018-07-15T07:04:41.611Z,34.08
2018-07-15T07:05:41.784Z,34.32
2018-07-15T07:06:41.980Z,34.60
2018-07-15T07:07:42.166Z,34.43
2018-07-15T07:08:42.348Z,34.29
2018-07-15T07:09:42.534Z,34.01
2018-07-15T07:10:42.732Z,33.80
2018-07-15T07:11:42.939Z,33.76
2018-07-15T07:12:43.180Z,33.74
2018-07-15T07:13:43.253Z,33.84
2018-07-15T07:14:43.440Z,34.03
2018-07-15T07:15:43.642Z,34.43
2018-07-15T07:16:43.843Z,35.00
2018-07-15T07:17:44.024Z,35.29
2018-07-15T07:18:47.048Z,35.08
2018-07-15T07:19:44.453Z,35.08
2018-07-15T07:20:44.649Z,34.86
2018-07-15T07:21:44.843Z,34.89
2018-07-15T07:22:45.049Z,34.85
2018-07-15T07:23:45.221Z,35.27
2018-07-15T07:24:45.422Z,35.56
2018-07-15T07:25:45.631Z,35.67
2018-07-15T07:26:47.662Z,35.79
2018-07-15T07:27:47.603Z,36.00
2018-07-15T07:28:47.538Z,35.93
2018-07-15T07:29:46.465Z,36.35
2018-07-15T07:30:47.859Z,36.43
2018-07-15T07:31:48.317Z,36.39
2018-07-15T07:32:48.318Z,36.46
2018-07-15T07:33:47.564Z,36.95
2018-07-15T07:34:47.531Z,37.08
2018-07-15T07:35:47.689Z,37.33
2018-07-15T07:36:47.880Z,37.82
2018-07-15T07:37:48.105Z,38.31
2018-07-15T07:38:48.671Z,38.71
2018-07-15T07:39:48.590Z,39.06
2018-07-15T07:40:48.990Z,38.60
2018-07-15T07:41:48.963Z,38.95
2018-07-15T07:42:49.282Z,39.25
2018-07-15T07:43:49.189Z,39.52
2018-07-15T07:44:49.282Z,39.26
2018-07-15T07:45:50.029Z,39.30
2018-07-15T07:46:50.070Z,39.62
2018-07-15T07:47:50.409Z,39.40
2018-07-15T07:48:50.407Z,39.26
2018-07-15T07:49:50.561Z,39.43
2018-07-15T07:50:50.574Z,39.87
2018-07-15T07:51:50.661Z,40.02
2018-07-15T07:52:50.727Z,40.47
2018-07-15T07:53:50.811Z,40.61
2018-07-15T07:54:51.297Z,40.54
2018-07-15T07:55:51.782Z,40.33
2018-07-15T07:56:51.291Z,40.62
2018-07-15T07:57:51.788Z,40.84
2018-07-15T07:58:52.012Z,41.03
2018-07-15T07:59:51.943Z,40.77
2018-07-15T08:00:52.160Z,40.66
2018-07-15T08:01:53.615Z,40.99
2018-07-15T08:02:52.679Z,40.72
2018-07-15T08:03:53.259Z,40.41
2018-07-15T08:04:53.790Z,40.78
2018-07-15T08:05:54.714Z,41.16
2018-07-15T08:06:53.791Z,41.70
2018-07-15T08:07:53.573Z,41.90
2018-07-15T08:08:53.426Z,41.31
2018-07-15T08:09:53.652Z,41.25
2018-07-15T08:10:53.818Z,41.34
2018-07-15T08:11:53.962Z,41.28
2018-07-15T08:12:53.936Z,41.21
2018-07-15T08:13:54.468Z,40.97
2018-07-15T08:14:54.531Z,41.47
2018-07-15T08:15:54.883Z,41.38
2018-07-15T08:16:54.952Z,41.36
2018-07-15T08:17:55.240Z,41.66
2018-07-15T08:18:55.310Z,41.04
2018-07-15T08:19:55.726Z,40.95
2018-07-15T08:20:55.553Z,41.31
2018-07-15T08:21:55.992Z,41.55
2018-07-15T08:22:56.448Z,42.09
2018-07-15T08:23:56.354Z,41.98
2018-07-15T08:24:56.287Z,42.04
2018-07-15T08:25:56.736Z,42.32
2018-07-15T08:26:56.882Z,42.32
2018-07-15T08:27:56.702Z,42.55
2018-07-15T08:28:57.393Z,42.70
2018-07-15T08:29:57.328Z,42.69
2018-07-15T08:30:57.352Z,42.43
2018-07-15T08:31:57.767Z,42.14
2018-07-15T08:32:57.572Z,42.45
2018-07-15T08:33:57.762Z,42.36
2018-07-15T08:34:58.054Z,42.50
2018-07-15T08:35:58.121Z,42.35
2018-07-15T08:36:58.408Z,42.32
2018-07-15T08:37:58.522Z,41.97
2018-07-15T08:38:59.008Z,41.74
2018-07-15T08:39:59.046Z,40.92
2018-07-15T08:40:59.069Z,40.28
2018-07-15T08:41:59.312Z,40.73
2018-07-15T08:42:59.487Z,40.70
2018-07-15T08:43:59.719Z,41.28
2018-07-15T08:45:00.172Z,41.77
2018-07-15T08:46:00.224Z,42.09
2018-07-15T08:47:00.203Z,42.28
2018-07-15T08:48:00.395Z,41.44
2018-07-15T08:49:00.601Z,41.12
2018-07-15T08:50:00.847Z,40.66
2018-07-15T08:51:01.045Z,40.61
2018-07-15T08:52:01.250Z,40.97
2018-07-15T08:53:03.205Z,40.51
2018-07-15T08:54:01.593Z,40.95
2018-07-15T08:55:01.761Z,41.70
2018-07-15T08:56:01.965Z,41.60
2018-07-15T08:57:03.011Z,41.16
2018-07-15T08:58:02.585Z,40.95
2018-07-15T08:59:02.808Z,40.92
2018-07-15T09:00:02.607Z,41.00
2018-07-15T09:01:02.844Z,41.40
2018-07-15T09:02:02.989Z,41.38
2018-07-15T09:03:03.235Z,41.24
2018-07-15T09:04:03.432Z,40.61
2018-07-15T09:05:03.676Z,40.30
2018-07-15T09:06:03.840Z,40.40
2018-07-15T09:07:04.136Z,40.47
2018-07-15T09:08:04.240Z,40.54
2018-07-15T09:09:04.484Z,40.92
2018-07-15T09:10:04.584Z,41.37
2018-07-15T09:11:04.783Z,41.87
2018-07-15T09:12:05.031Z,42.07
2018-07-15T09:13:05.229Z,41.36
2018-07-15T09:14:06.272Z,41.12
2018-07-15T09:15:05.899Z,41.03
2018-07-15T09:16:05.762Z,40.87
2018-07-15T09:17:06.658Z,41.06
2018-07-15T09:18:06.367Z,41.41
2018-07-15T09:19:06.308Z,41.04
2018-07-15T09:20:06.493Z,41.02
2018-07-15T09:21:06.740Z,41.24
2018-07-15T09:22:07.066Z,41.12
2018-07-15T09:23:07.524Z,40.82
2018-07-15T09:24:07.343Z,40.82
2018-07-15T09:25:07.617Z,39.93
2018-07-15T09:26:07.798Z,40.18
2018-07-15T09:27:07.928Z,40.14
2018-07-15T09:28:08.103Z,40.28
2018-07-15T09:29:08.295Z,40.40
2018-07-15T09:30:08.934Z,40.20
2018-07-15T09:31:08.601Z,40.72
2018-07-15T09:32:08.832Z,40.47
2018-07-15T09:33:08.997Z,39.94
2018-07-15T09:34:09.192Z,40.59
2018-07-15T09:35:09.416Z,40.61
2018-07-15T09:36:09.580Z,40.75
2018-07-15T09:37:09.771Z,40.65
2018-07-15T09:38:09.968Z,40.85
2018-07-15T09:39:10.183Z,40.05
2018-07-15T09:40:10.376Z,40.23
2018-07-15T09:41:10.577Z,40.62
2018-07-15T09:42:10.766Z,39.90
2018-07-15T09:43:10.967Z,39.37
2018-07-15T09:44:11.155Z,39.70
2018-07-15T09:45:11.351Z,39.93
2018-07-15T09:46:11.583Z,40.41
2018-07-15T09:47:11.771Z,40.82
2018-07-15T09:48:11.978Z,41.07
2018-07-15T09:49:12.174Z,40.72
2018-07-15T09:50:12.384Z,40.80
2018-07-15T09:51:12.573Z,40.81
2018-07-15T09:52:12.768Z,41.22
2018-07-15T09:53:12.957Z,41.40
2018-07-15T09:54:13.148Z,41.74
2018-07-15T09:55:13.340Z,41.99
2018-07-15T09:56:13.614Z,41.95
2018-07-15T09:57:13.683Z,41.55
2018-07-15T09:58:13.875Z,41.21
2018-07-15T09:59:14.056Z,40.90
2018-07-15T10:00:14.252Z,40.08
2018-07-15T10:01:14.444Z,39.43
2018-07-15T10:02:14.642Z,39.48
2018-07-15T10:03:14.906Z,39.49
2018-07-15T10:04:15.038Z,38.50
2018-07-15T10:05:15.224Z,38.58
2018-07-15T10:06:15.707Z,38.39
2018-07-15T10:07:15.594Z,38.57
2018-07-15T10:08:15.786Z,38.39
2018-07-15T10:09:15.989Z,38.55
2018-07-15T10:10:16.179Z,38.50
2018-07-15T10:11:16.366Z,38.62
2018-07-15T10:12:16.554Z,38.73
2018-07-15T10:13:16.740Z,39.07
2018-07-15T10:14:16.936Z,38.83
2018-07-15T10:15:17.128Z,38.60
2018-07-15T10:16:17.324Z,38.19
2018-07-15T10:17:17.517Z,38.01
2018-07-15T10:18:17.705Z,37.51
2018-07-15T10:19:17.900Z,37.47
2018-07-15T10:20:18.093Z,37.15
2018-07-15T10:21:18.288Z,37.33
2018-07-15T10:22:18.485Z,37.33
2018-07-15T10:23:18.674Z,36.81
2018-07-15T10:24:18.864Z,36.46
2018-07-15T10:25:19.094Z,36.20
2018-07-15T10:26:19.273Z,36.00
2018-07-15T10:27:19.464Z,35.64
2018-07-15T10:28:19.655Z,35.89
2018-07-15T10:29:19.850Z,35.79
2018-07-15T10:30:20.035Z,35.66
2018-07-15T10:31:20.227Z,35.41
2018-07-15T10:32:20.411Z,35.04
2018-07-15T10:33:20.828Z,34.95
2018-07-15T10:34:20.871Z,34.92
2018-07-15T10:35:21.359Z,34.99
2018-07-15T10:36:21.285Z,34.80
2018-07-15T10:37:21.404Z,34.78
2018-07-15T10:38:21.468Z,34.83
2018-07-15T10:39:21.673Z,34.57
2018-07-15T10:40:21.863Z,34.52
2018-07-15T10:41:22.051Z,33.96
2018-07-15T10:42:22.263Z,33.76
2018-07-15T10:43:22.459Z,33.50
2018-07-15T10:44:22.634Z,33.39
2018-07-15T10:45:22.817Z,33.20
2018-07-15T10:46:23.001Z,33.22
2018-07-15T10:47:23.186Z,33.31
2018-07-15T10:48:23.373Z,33.49
2018-07-15T10:49:23.557Z,33.80
2018-07-15T10:50:23.751Z,33.83
2018-07-15T10:51:23.940Z,33.81
2018-07-15T10:52:24.129Z,33.65
2018-07-15T10:53:24.321Z,33.80
2018-07-15T10:54:24.522Z,33.77
2018-07-15T10:55:24.708Z,34.03
2018-07-15T10:56:24.895Z,34.06
2018-07-15T10:57:25.076Z,34.11
2018-07-15T10:58:25.273Z,34.17
2018-07-15T10:59:25.517Z,34.18
2018-07-15T11:00:25.728Z,33.95
2018-07-15T11:01:25.892Z,33.90
2018-07-15T11:02:26.075Z,33.80
2018-07-15T11:03:26.259Z,33.40
2018-07-15T11:04:26.448Z,33.30
2018-07-15T11:05:26.768Z,33.04
2018-07-15T11:06:26.927Z,33.11
2018-07-15T11:07:26.942Z,33.24
2018-07-15T11:08:27.127Z,33.12
2018-07-15T11:09:27.315Z,33.20
2018-07-15T11:10:27.492Z,32.85
2018-07-15T11:11:27.677Z,32.43
2018-07-15T11:12:27.863Z,32.52
2018-07-15T11:13:28.134Z,32.58
2018-07-15T11:14:28.237Z,32.68
2018-07-15T11:15:28.421Z,32.75
2018-07-15T11:16:28.617Z,32.73
2018-07-15T11:17:28.804Z,32.64
2018-07-15T11:18:28.989Z,32.71
2018-07-15T11:19:29.168Z,32.68
2018-07-15T11:20:29.351Z,32.82
2018-07-15T11:21:29.545Z,32.92
2018-07-15T11:22:29.832Z,32.86
2018-07-15T11:23:29.930Z,32.87
2018-07-15T11:24:30.124Z,32.71
2018-07-15T11:25:30.307Z,32.77
2018-07-15T11:26:30.559Z,32.77
2018-07-15T11:27:30.637Z,32.52
2018-07-15T11:28:30.824Z,32.65
2018-07-15T11:29:31.253Z,32.71
2018-07-15T11:30:31.195Z,32.53
2018-07-15T11:31:31.556Z,32.48
2018-07-15T11:32:31.566Z,32.43
2018-07-15T11:33:31.752Z,32.27
2018-07-15T11:34:31.939Z,32.19
2018-07-15T11:35:32.126Z,32.18
2018-07-15T11:36:32.312Z,32.18
2018-07-15T11:37:32.496Z,32.18
2018-07-15T11:38:32.698Z,32.15
2018-07-15T11:39:32.874Z,32.33
2018-07-15T11:40:33.110Z,32.33
2018-07-15T11:41:33.249Z,32.48
2018-07-15T11:42:33.444Z,32.53
2018-07-15T11:43:33.635Z,32.65
2018-07-15T11:44:33.829Z,32.51
2018-07-15T11:45:34.017Z,32.53
2018-07-15T11:46:34.205Z,32.36
2018-07-15T11:47:34.569Z,32.30
2018-07-15T11:48:34.569Z,32.26
2018-07-15T11:49:36.301Z,32.30
2018-07-15T11:50:36.165Z,32.19
2018-07-15T11:51:37.640Z,32.29
2018-07-15T11:52:36.032Z,32.23
2018-07-15T11:53:36.681Z,32.15
2018-07-15T11:54:36.070Z,32.30
2018-07-15T11:55:36.117Z,32.37
2018-07-15T11:56:36.184Z,32.43
2018-07-15T11:57:36.236Z,32.46
2018-07-15T11:58:37.561Z,32.45
2018-07-15T11:59:36.635Z,32.59
2018-07-15T12:00:37.320Z,32.41
2018-07-15T12:01:38.285Z,32.36
2018-07-15T12:02:37.966Z,32.15
2018-07-15T12:03:37.266Z,32.22
2018-07-15T12:04:39.659Z,32.18
2018-07-15T12:05:37.212Z,32.27
2018-07-15T12:06:37.407Z,32.00
2018-07-15T12:07:40.644Z,31.96
2018-07-15T12:08:39.500Z,31.96
2018-07-15T12:09:41.029Z,31.94
2018-07-15T12:10:39.876Z,31.93
2018-07-15T12:11:40.049Z,31.81
2018-07-15T12:12:39.329Z,31.66
2018-07-15T12:13:38.977Z,31.61
2018-07-15T12:14:39.608Z,31.73
2018-07-15T12:15:39.401Z,31.59
2018-07-15T12:16:39.282Z,31.66
2018-07-15T12:17:42.526Z,31.73
2018-07-15T12:18:39.680Z,31.77
2018-07-15T12:19:40.336Z,31.64
2018-07-15T12:20:43.226Z,31.59
2018-07-15T12:21:40.686Z,31.71
2018-07-15T12:22:41.168Z,31.71
2018-07-15T12:23:41.423Z,31.62
2018-07-15T12:24:41.203Z,31.74
2018-07-15T12:25:41.829Z,31.61
2018-07-15T12:26:42.239Z,31.47
2018-07-15T12:27:42.441Z,31.40
2018-07-15T12:28:43.631Z,31.21
2018-07-15T12:29:42.490Z,31.17
2018-07-15T12:30:43.534Z,30.96
2018-07-15T12:31:42.842Z,30.96
2018-07-15T12:32:42.786Z,31.12
2018-07-15T12:33:42.688Z,31.21
2018-07-15T12:34:42.997Z,31.40
2018-07-15T12:35:43.955Z,31.52
2018-07-15T12:36:44.077Z,31.69
2018-07-15T12:37:43.895Z,31.74
2018-07-15T12:38:44.259Z,31.80
2018-07-15T12:39:42.879Z,31.92
2018-07-15T12:40:44.564Z,31.92
2018-07-15T12:41:44.319Z,31.78
2018-07-15T12:42:43.487Z,31.85
2018-07-15T12:43:44.993Z,31.70
2018-07-15T12:44:45.259Z,31.74
2018-07-15T12:45:45.346Z,31.74
2018-07-15T12:46:45.707Z,31.84
2018-07-15T12:47:45.816Z,31.73
2018-07-15T12:48:45.986Z,31.74
2018-07-15T12:49:45.878Z,31.77
2018-07-15T12:50:49.360Z,31.78
2018-07-15T12:51:47.703Z,31.81
2018-07-15T12:52:48.959Z,31.74
2018-07-15T12:53:47.049Z,31.76
2018-07-15T12:54:46.631Z,31.62
2018-07-15T12:55:47.371Z,31.61
2018-07-15T12:56:47.255Z,31.64